Un Trieste — TCOD3 — position and weather

sailwx.info

Track history (hours):
 
Tides and Currents Weather Stations Pressure Air Temp Water Temp Dewpoint Dewpoint Depression Visibility Wind Speed Wind Dir Waves Ship Positions

Un Trieste

Last reported at 2018-Apr-24 11:58 UTC. Time now 2018-Apr-24 12:22 UTC.
Position N 43°06' E 005°54'.

Length 193 m; draft 6.5 m.

Type: Ship (hazmat cat A). MMSI: 271000793.

Date/timePositionNaut miles runAvg speedWind from/ knotsBaromVisibWave heightAir tempDewpointWater temp
2018-Apr-24 11:58N 43°06' E 005°54'0 0.0
2018-Apr-24 11:28N 43°06' E 005°54'0 0.0
2018-Apr-24 11:00N 43°06' E 005°54'0 0.0
2018-Apr-24 10:30N 43°06' E 005°54'0 0.0
2018-Apr-24 10:00N 43°06' E 005°54'0 0.0
2018-Apr-24 09:30N 43°06' E 005°54'0 0.0
2018-Apr-24 08:59N 43°06' E 005°54'0 0.0
2018-Apr-24 08:29N 43°06' E 005°54'0 0.0
2018-Apr-24 07:59N 43°06' E 005°54'0 0.0
2018-Apr-24 07:29N 43°06' E 005°54'0 0.0
2018-Apr-24 06:59N 43°06' E 005°54'0 0.0
2018-Apr-24 06:28N 43°06' E 005°54'0 0.0
2018-Apr-24 06:00N 43°06' E 005°54'3 5.3
2018-Apr-24 05:30N 43°05' E 005°57'3511.6
2018-Apr-24 02:32N 42°40' E 006°30'119.1
2018-Apr-24 02:30N 42°40' E 006°31'919.2
2018-Apr-24 02:00N 42°35' E 006°41'1019.3
2018-Apr-24 01:28N 42°29' E 006°52'1019.0
2018-Apr-24 00:56N 42°23' E 007°04'3118.8
2018-Apr-23 23:18N 42°05' E 007°38'619.1
2018-Apr-23 23:00N 42°02' E 007°44'1119.2
2018-Apr-23 22:27N 41°56' E 007°56'918.9
2018-Apr-23 21:57N 41°50' E 008°06'7417.6
2018-Apr-23 17:46N 41°20' E 009°35'518.6
2018-Apr-23 17:30N 41°17' E 009°41'1319.0
2018-Apr-23 16:47N 41°10' E 009°56'619.0
2018-Apr-23 16:29N 41°07' E 010°03'919.0
2018-Apr-23 16:00N 41°02' E 010°13'1019.2
2018-Apr-23 15:30N 40°57' E 010°24'5719.3
2018-Apr-23 12:34N 40°27' E 011°28'218.9
2018-Apr-23 12:28N 40°26' E 011°30'4418.8
2018-Apr-23 10:07N 40°04' E 012°20'3419.0
2018-Apr-23 08:19N 39°45' E 012°58'819.4
2018-Apr-23 07:54N 39°41' E 013°06'819.3
2018-Apr-23 07:30N 39°37' E 013°15'1019.2
2018-Apr-23 07:00N 39°32' E 013°26'1019.4
2018-Apr-23 06:30N 39°27' E 013°36'1019.1
2018-Apr-23 06:00N 39°22' E 013°47'6219.2
2018-Apr-23 02:47N 38°50' E 014°55'619.2
2018-Apr-23 02:29N 38°47' E 015°01'919.1
2018-Apr-23 02:00N 38°42' E 015°11'918.9
2018-Apr-23 01:30N 38°36' E 015°20'1019.0
2018-Apr-23 01:00N 38°29' E 015°29'919.3
2018-Apr-23 00:30N 38°22' E 015°38'714.4
2018-Apr-23 00:00N 38°15' E 015°40'816.2
2018-Apr-22 23:30N 38°08' E 015°36'917.5
2018-Apr-22 22:59N 37°59' E 015°37'917.9
2018-Apr-22 22:29N 37°53' E 015°46'38517.4
2018-Apr-22 00:27N 37°07' E 023°47'2319.5
2018-Apr-21 23:14N 37°27' E 024°03'167 3.9
2018-Apr-20 04:23N 39°51' E 025°53'19019.4
2018-Apr-19 18:37N 37°05' E 023°56'79618.0
2018-Apr-17 22:30N 41°53' E 007°54'1119.7
2018-Apr-17 21:58N 41°59' E 007°43'10119.6
2018-Apr-17 16:47N 43°05' E 005°58'310.9
2018-Apr-17 16:31N 43°06' E 005°55'1 1.7
2018-Apr-17 15:59N 43°06' E 005°54'0 0.0
2018-Apr-17 15:30N 43°06' E 005°54'0 0.0
2018-Apr-17 14:59N 43°06' E 005°54'0 0.0
2018-Apr-17 14:29N 43°06' E 005°54'0 0.0
2018-Apr-17 13:59N 43°06' E 005°54'0 0.0
2018-Apr-17 13:28N 43°06' E 005°54'0 0.0
2018-Apr-17 12:59N 43°06' E 005°54'0 0.0
2018-Apr-17 12:28N 43°06' E 005°54'0 0.0
2018-Apr-17 11:58N 43°06' E 005°54'0 0.0
2018-Apr-17 11:28N 43°06' E 005°54'0 0.0
2018-Apr-17 11:00N 43°06' E 005°54'0 0.0
2018-Apr-17 10:30N 43°06' E 005°54'0 0.0
2018-Apr-17 10:00N 43°06' E 005°54'0 0.0
2018-Apr-17 09:30N 43°06' E 005°54'0 0.0
2018-Apr-17 08:59N 43°06' E 005°54'0 0.0
2018-Apr-17 08:29N 43°06' E 005°54'0 0.0
2018-Apr-17 07:59N 43°06' E 005°54'0 0.0
2018-Apr-17 07:29N 43°06' E 005°54'0 0.0
2018-Apr-17 06:59N 43°06' E 005°54'0 0.0
2018-Apr-17 06:28N 43°06' E 005°54'0 0.1
2018-Apr-17 06:00N 43°06' E 005°54'3 5.7
2018-Apr-17 05:30N 43°05' E 005°57'1111.3
2018-Apr-17 04:31N 42°55' E 006°02'011.4
2018-Apr-17 04:30N 42°54' E 006°02'816.9
2018-Apr-17 04:00N 42°49' E 006°11'1020.1
2018-Apr-17 03:29N 42°44' E 006°23'919.4
2018-Apr-17 03:00N 42°38' E 006°33'1019.2
2018-Apr-17 02:30N 42°33' E 006°44'85017.3
2018-Apr-15 01:29N 37°08' E 023°47'  
Track history (hours):
 
Tides and Currents Weather Stations Pressure Air Temp Water Temp Dewpoint Dewpoint Depression Visibility Wind Speed Wind Dir Waves Ship Positions

Un Trieste

Last reported at 2018-Apr-24 11:58 UTC. Time now 2018-Apr-24 12:22 UTC.
Position N 43°06' E 005°54'.

Length 193 m; draft 6.5 m.

Type: Ship (hazmat cat A). MMSI: 271000793.

Date/timePositionNaut miles runAvg speedWind from/ knotsBaromVisibWave heightAir tempDewpointWater temp
2018-Apr-24 11:58N 43°06' E 005°54'0 0.0
2018-Apr-24 11:28N 43°06' E 005°54'0 0.0
2018-Apr-24 11:00N 43°06' E 005°54'0 0.0
2018-Apr-24 10:30N 43°06' E 005°54'0 0.0
2018-Apr-24 10:00N 43°06' E 005°54'0 0.0
2018-Apr-24 09:30N 43°06' E 005°54'0 0.0
2018-Apr-24 08:59N 43°06' E 005°54'0 0.0
2018-Apr-24 08:29N 43°06' E 005°54'0 0.0
2018-Apr-24 07:59N 43°06' E 005°54'0 0.0
2018-Apr-24 07:29N 43°06' E 005°54'0 0.0
2018-Apr-24 06:59N 43°06' E 005°54'0 0.0
2018-Apr-24 06:28N 43°06' E 005°54'0 0.0
2018-Apr-24 06:00N 43°06' E 005°54'3 5.3
2018-Apr-24 05:30N 43°05' E 005°57'3511.6
2018-Apr-24 02:32N 42°40' E 006°30'119.1
2018-Apr-24 02:30N 42°40' E 006°31'919.2
2018-Apr-24 02:00N 42°35' E 006°41'1019.3
2018-Apr-24 01:28N 42°29' E 006°52'1019.0
2018-Apr-24 00:56N 42°23' E 007°04'3118.8
2018-Apr-23 23:18N 42°05' E 007°38'619.1
2018-Apr-23 23:00N 42°02' E 007°44'1119.2
2018-Apr-23 22:27N 41°56' E 007°56'918.9
2018-Apr-23 21:57N 41°50' E 008°06'7417.6
2018-Apr-23 17:46N 41°20' E 009°35'518.6
2018-Apr-23 17:30N 41°17' E 009°41'1319.0
2018-Apr-23 16:47N 41°10' E 009°56'619.0
2018-Apr-23 16:29N 41°07' E 010°03'919.0
2018-Apr-23 16:00N 41°02' E 010°13'1019.2
2018-Apr-23 15:30N 40°57' E 010°24'5719.3
2018-Apr-23 12:34N 40°27' E 011°28'218.9
2018-Apr-23 12:28N 40°26' E 011°30'4418.8
2018-Apr-23 10:07N 40°04' E 012°20'3419.0
2018-Apr-23 08:19N 39°45' E 012°58'819.4
2018-Apr-23 07:54N 39°41' E 013°06'819.3
2018-Apr-23 07:30N 39°37' E 013°15'1019.2
2018-Apr-23 07:00N 39°32' E 013°26'1019.4
2018-Apr-23 06:30N 39°27' E 013°36'1019.1
2018-Apr-23 06:00N 39°22' E 013°47'6219.2
2018-Apr-23 02:47N 38°50' E 014°55'619.2
2018-Apr-23 02:29N 38°47' E 015°01'919.1
2018-Apr-23 02:00N 38°42' E 015°11'918.9
2018-Apr-23 01:30N 38°36' E 015°20'1019.0
2018-Apr-23 01:00N 38°29' E 015°29'919.3
2018-Apr-23 00:30N 38°22' E 015°38'714.4
2018-Apr-23 00:00N 38°15' E 015°40'816.2
2018-Apr-22 23:30N 38°08' E 015°36'917.5
2018-Apr-22 22:59N 37°59' E 015°37'917.9
2018-Apr-22 22:29N 37°53' E 015°46'38517.4
2018-Apr-22 00:27N 37°07' E 023°47'2319.5
2018-Apr-21 23:14N 37°27' E 024°03'167 3.9
2018-Apr-20 04:23N 39°51' E 025°53'19019.4
2018-Apr-19 18:37N 37°05' E 023°56'79618.0
2018-Apr-17 22:30N 41°53' E 007°54'1119.7
2018-Apr-17 21:58N 41°59' E 007°43'10119.6
2018-Apr-17 16:47N 43°05' E 005°58'310.9
2018-Apr-17 16:31N 43°06' E 005°55'1 1.7
2018-Apr-17 15:59N 43°06' E 005°54'0 0.0
2018-Apr-17 15:30N 43°06' E 005°54'0 0.0
2018-Apr-17 14:59N 43°06' E 005°54'0 0.0
2018-Apr-17 14:29N 43°06' E 005°54'0 0.0
2018-Apr-17 13:59N 43°06' E 005°54'0 0.0
2018-Apr-17 13:28N 43°06' E 005°54'0 0.0
2018-Apr-17 12:59N 43°06' E 005°54'0 0.0
2018-Apr-17 12:28N 43°06' E 005°54'0 0.0
2018-Apr-17 11:58N 43°06' E 005°54'0 0.0
2018-Apr-17 11:28N 43°06' E 005°54'0 0.0
2018-Apr-17 11:00N 43°06' E 005°54'0 0.0
2018-Apr-17 10:30N 43°06' E 005°54'0 0.0
2018-Apr-17 10:00N 43°06' E 005°54'0 0.0
2018-Apr-17 09:30N 43°06' E 005°54'0 0.0
2018-Apr-17 08:59N 43°06' E 005°54'0 0.0
2018-Apr-17 08:29N 43°06' E 005°54'0 0.0
2018-Apr-17 07:59N 43°06' E 005°54'0 0.0
2018-Apr-17 07:29N 43°06' E 005°54'0 0.0
2018-Apr-17 06:59N 43°06' E 005°54'0 0.0
2018-Apr-17 06:28N 43°06' E 005°54'0 0.1
2018-Apr-17 06:00N 43°06' E 005°54'3 5.7
2018-Apr-17 05:30N 43°05' E 005°57'1111.3
2018-Apr-17 04:31N 42°55' E 006°02'011.4
2018-Apr-17 04:30N 42°54' E 006°02'816.9
2018-Apr-17 04:00N 42°49' E 006°11'1020.1
2018-Apr-17 03:29N 42°44' E 006°23'919.4
2018-Apr-17 03:00N 42°38' E 006°33'1019.2
2018-Apr-17 02:30N 42°33' E 006°44'85017.3
2018-Apr-15 01:29N 37°08' E 023°47'  

Dump ship's entire track history